createdAt,value
2022-08-01T00:00:38.237Z,15.60
2022-08-01T00:03:05.815Z,12.90
2022-08-01T00:05:33.694Z,14.53
2022-08-01T00:08:01.956Z,14.87
2022-08-01T00:10:29.483Z,14.87
2022-08-01T00:12:56.640Z,18.70
2022-08-01T00:15:23.930Z,13.83
2022-08-01T00:17:51.188Z,11.27
2022-08-01T00:20:18.408Z,15.43
2022-08-01T00:22:45.687Z,13.37
2022-08-01T00:25:12.948Z,12.80
2022-08-01T00:27:40.186Z,12.40
2022-08-01T00:30:10.841Z,14.80
2022-08-01T00:32:41.365Z,12.40
2022-08-01T00:35:08.817Z,13.93
2022-08-01T00:37:36.479Z,10.63
2022-08-01T00:40:03.935Z,13.40
2022-08-01T00:42:31.172Z,9.83
2022-08-01T00:44:58.348Z,12.40
2022-08-01T00:47:25.632Z,15.30
2022-08-01T00:49:52.931Z,13.47
2022-08-01T00:52:20.307Z,10.73
2022-08-01T00:54:47.759Z,10.00
2022-08-01T00:57:15.279Z,12.10
2022-08-01T00:59:42.694Z,12.37
2022-08-01T01:02:14.749Z,14.40
2022-08-01T01:04:42.799Z,12.93
2022-08-01T01:07:19.177Z,11.60
2022-08-01T01:09:54.208Z,12.00
2022-08-01T01:12:21.570Z,11.30
2022-08-01T01:14:57.801Z,14.13
2022-08-01T01:17:49.527Z,13.60
2022-08-01T01:20:18.038Z,10.80
2022-08-01T01:22:48.247Z,15.27
2022-08-01T01:25:24.726Z,13.50
2022-08-01T01:27:57.937Z,13.07
2022-08-01T01:30:26.076Z,14.80
2022-08-01T01:32:54.375Z,11.90
2022-08-01T01:35:26.548Z,10.40
2022-08-01T01:37:57.977Z,15.27
2022-08-01T01:40:25.761Z,13.23
2022-08-01T01:42:53.117Z,13.43
2022-08-01T01:45:21.191Z,15.70
2022-08-01T01:47:48.846Z,13.10
2022-08-01T01:50:16.804Z,14.00
2022-08-01T01:52:45.616Z,14.60
2022-08-01T01:55:14.298Z,14.33
2022-08-01T01:57:42.786Z,10.37
2022-08-01T02:00:12.178Z,12.10
2022-08-01T02:02:39.844Z,13.47
2022-08-01T02:05:07.802Z,17.77
2022-08-01T02:07:36.068Z,11.77
2022-08-01T02:10:04.258Z,11.13
2022-08-01T02:12:34.258Z,12.07
2022-08-01T02:15:01.770Z,10.33
2022-08-01T02:17:29.639Z,11.73
2022-08-01T02:19:57.060Z,11.43
2022-08-01T02:22:24.310Z,11.53
2022-08-01T02:24:53.836Z,13.83
2022-08-01T02:27:25.067Z,10.43
2022-08-01T02:29:54.962Z,13.77
2022-08-01T02:32:25.406Z,13.93
2022-08-01T02:34:53.873Z,10.97
2022-08-01T02:37:22.163Z,13.20
2022-08-01T02:39:50.131Z,10.87
2022-08-01T02:42:17.969Z,11.40
2022-08-01T02:44:46.226Z,11.13
2022-08-01T02:47:14.184Z,12.23
2022-08-01T02:49:44.384Z,15.10
2022-08-01T02:52:14.585Z,16.50
2022-08-01T02:54:42.896Z,19.63
2022-08-01T02:57:13.856Z,15.27
2022-08-01T02:59:42.272Z,12.33
2022-08-01T03:02:10.369Z,13.67
2022-08-01T03:04:39.878Z,13.10
2022-08-01T03:07:09.355Z,13.43
2022-08-01T03:09:39.081Z,11.47
2022-08-01T03:12:08.606Z,15.30
2022-08-01T03:14:37.330Z,11.77
2022-08-01T03:17:05.798Z,11.43
2022-08-01T03:19:33.430Z,10.23
2022-08-01T03:22:01.583Z,11.57
2022-08-01T03:24:29.085Z,11.57
2022-08-01T03:26:58.469Z,13.50
2022-08-01T03:29:27.759Z,12.43
2022-08-01T03:31:55.219Z,9.20
2022-08-01T03:34:22.765Z,9.93
2022-08-01T03:36:52.202Z,9.47
2022-08-01T03:39:20.444Z,12.43
2022-08-01T03:41:56.687Z,11.00
2022-08-01T03:44:26.332Z,9.83
2022-08-01T03:47:00.307Z,12.27
2022-08-01T03:49:34.681Z,12.47
2022-08-01T03:52:08.029Z,10.70
2022-08-01T03:54:37.446Z,12.73
2022-08-01T03:57:05.709Z,9.33
2022-08-01T03:59:34.412Z,12.50
2022-08-01T04:02:01.767Z,12.97
2022-08-01T04:04:30.661Z,11.87
2022-08-01T04:06:58.019Z,8.67
2022-08-01T04:09:25.274Z,8.97
2022-08-01T04:11:52.530Z,12.27
2022-08-01T04:14:19.875Z,9.43
2022-08-01T04:16:47.192Z,9.37
2022-08-01T04:19:16.208Z,9.60
2022-08-01T04:21:43.563Z,11.90
2022-08-01T04:24:18.550Z,11.03
2022-08-01T04:26:47.296Z,9.67
2022-08-01T04:29:17.563Z,10.10
2022-08-01T04:31:47.177Z,8.60
2022-08-01T04:34:15.901Z,10.50
2022-08-01T04:36:43.462Z,8.33
2022-08-01T04:39:11.430Z,9.03
2022-08-01T04:41:39.195Z,8.47
2022-08-01T04:44:06.532Z,13.03
2022-08-01T04:46:34.009Z,6.90
2022-08-01T04:49:01.669Z,10.00
2022-08-01T04:51:29.041Z,6.90
2022-08-01T04:53:57.675Z,6.27
2022-08-01T04:56:24.863Z,6.30
2022-08-01T04:59:19.790Z,6.30
2022-08-01T05:01:50.501Z,9.77
2022-08-01T05:04:17.854Z,5.63
2022-08-01T05:06:45.119Z,7.10
2022-08-01T05:09:12.460Z,5.87
2022-08-01T05:11:39.714Z,8.43
2022-08-01T05:14:07.609Z,7.93
2022-08-01T05:16:35.062Z,8.47
2022-08-01T05:19:03.538Z,5.60
2022-08-01T05:21:30.785Z,6.77
2022-08-01T05:23:59.064Z,8.97
2022-08-01T05:26:26.401Z,6.37
2022-08-01T05:28:53.859Z,7.60
2022-08-01T05:31:21.076Z,5.73
2022-08-01T05:33:48.469Z,7.13
2022-08-01T05:36:15.779Z,5.80
2022-08-01T05:38:43.076Z,5.47
2022-08-01T05:41:10.314Z,6.90
2022-08-01T05:43:37.564Z,8.27
2022-08-01T05:46:04.833Z,6.40
2022-08-01T05:48:32.048Z,6.97
2022-08-01T05:50:59.564Z,6.23
2022-08-01T05:53:27.132Z,5.53
2022-08-01T05:55:54.514Z,6.00
2022-08-01T05:58:22.350Z,7.63
2022-08-01T06:00:49.590Z,6.17
2022-08-01T06:03:17.246Z,5.90
2022-08-01T06:05:45.346Z,6.73
2022-08-01T06:08:12.735Z,6.20
2022-08-01T06:10:41.475Z,9.90
2022-08-01T06:13:08.636Z,7.50
2022-08-01T06:15:35.964Z,6.00
2022-08-01T06:18:03.314Z,12.43
2022-08-01T06:20:30.598Z,5.27
2022-08-01T06:22:57.874Z,7.50
2022-08-01T06:25:27.326Z,6.07
2022-08-01T06:27:54.577Z,8.37
2022-08-01T06:30:22.254Z,8.27
2022-08-01T06:32:50.611Z,6.93
2022-08-01T06:35:18.963Z,6.50
2022-08-01T06:37:47.643Z,5.93
2022-08-01T06:40:17.450Z,6.20
2022-08-01T06:42:46.664Z,5.60
2022-08-01T06:45:16.422Z,6.87
2022-08-01T06:47:50.710Z,8.53
2022-08-01T06:50:19.398Z,6.67
2022-08-01T06:52:46.784Z,6.37
2022-08-01T06:55:16.487Z,6.87
2022-08-01T06:57:51.526Z,7.37
2022-08-01T07:00:21.864Z,6.33
2022-08-01T07:02:51.443Z,7.50
2022-08-01T07:05:19.887Z,5.70
2022-08-01T07:07:47.291Z,6.43
2022-08-01T07:10:14.852Z,6.67
2022-08-01T07:12:43.560Z,6.37
2022-08-01T07:15:11.599Z,5.80
2022-08-01T07:17:42.452Z,5.47
2022-08-01T07:20:11.158Z,5.27
2022-08-01T07:22:39.007Z,6.73
2022-08-01T07:25:06.901Z,5.37
2022-08-01T07:27:35.452Z,5.30
2022-08-01T07:30:02.736Z,5.20
2022-08-01T07:32:30.473Z,6.03
2022-08-01T07:34:58.032Z,5.80
2022-08-01T07:37:47.820Z,7.03
2022-08-01T07:40:14.964Z,5.20
2022-08-01T07:42:44.464Z,4.47
2022-08-01T07:45:12.751Z,4.93
2022-08-01T07:47:40.301Z,5.60
2022-08-01T07:50:09.135Z,6.70
2022-08-01T07:52:36.553Z,5.80
2022-08-01T07:55:03.917Z,5.83
2022-08-01T07:57:31.275Z,5.67
2022-08-01T07:59:58.636Z,5.80
2022-08-01T08:02:26.003Z,5.72
2022-08-01T08:04:53.327Z,8.17
2022-08-01T08:07:20.667Z,6.07
2022-08-01T08:09:51.314Z,5.20
2022-08-01T08:12:18.782Z,7.73
2022-08-01T08:14:56.470Z,6.13
2022-08-01T08:17:24.953Z,4.50
2022-08-01T08:19:53.313Z,6.30
2022-08-01T08:22:20.523Z,5.10
2022-08-01T08:24:48.024Z,4.63
2022-08-01T08:27:16.077Z,4.07
2022-08-01T08:29:43.671Z,5.22
2022-08-01T08:32:12.241Z,3.90
2022-08-01T08:34:39.512Z,4.72
2022-08-01T08:37:07.391Z,3.72
2022-08-01T08:39:41.295Z,3.63
2022-08-01T08:42:09.754Z,6.28
2022-08-01T08:44:37.033Z,4.40
2022-08-01T08:47:09.222Z,4.07
2022-08-01T08:49:37.314Z,4.32
2022-08-01T08:52:05.538Z,4.28
2022-08-01T08:54:34.820Z,4.63
2022-08-01T08:57:02.702Z,5.22
2022-08-01T08:59:30.761Z,4.93
2022-08-01T09:01:59.641Z,4.95
2022-08-01T09:04:29.939Z,5.00
2022-08-01T09:06:58.991Z,6.25
2022-08-01T09:09:26.531Z,7.00
2022-08-01T09:11:58.086Z,4.10
2022-08-01T09:14:30.409Z,4.57
2022-08-01T09:17:03.850Z,3.80
2022-08-01T09:19:41.667Z,4.97
2022-08-01T09:22:11.362Z,4.20
2022-08-01T09:24:40.899Z,3.75
2022-08-01T09:27:21.621Z,4.72
2022-08-01T09:30:00.745Z,3.65
2022-08-01T09:32:35.137Z,5.05
2022-08-01T09:35:22.334Z,5.28
2022-08-01T09:37:49.660Z,4.03
2022-08-01T09:40:16.917Z,3.85
2022-08-01T09:42:44.268Z,4.10
2022-08-01T09:45:23.245Z,4.57
2022-08-01T09:47:51.088Z,4.07
2022-08-01T09:50:18.555Z,8.00
2022-08-01T09:52:54.910Z,3.92
2022-08-01T09:55:23.484Z,3.90
2022-08-01T09:57:59.138Z,4.00
2022-08-01T10:00:44.474Z,4.00
2022-08-01T10:03:23.982Z,4.90
2022-08-01T10:05:54.464Z,3.40
2022-08-01T10:08:24.291Z,3.33
2022-08-01T10:11:12.116Z,2.75
2022-08-01T10:13:39.896Z,4.43
2022-08-01T10:16:09.284Z,3.40
2022-08-01T10:18:37.478Z,3.87
2022-08-01T10:21:10.767Z,5.80
2022-08-01T10:23:41.192Z,4.00
2022-08-01T10:26:09.374Z,4.30
2022-08-01T10:28:38.741Z,3.93
2022-08-01T10:31:12.566Z,3.87
2022-08-01T10:33:52.231Z,5.13
2022-08-01T10:36:25.504Z,3.28
2022-08-01T10:41:31.059Z,3.33
2022-08-01T10:43:58.956Z,5.25
2022-08-01T10:46:28.039Z,3.63
2022-08-01T10:49:21.663Z,3.72
2022-08-01T10:51:52.483Z,5.30
2022-08-01T10:54:25.853Z,3.50
2022-08-01T10:56:55.347Z,4.57
2022-08-01T10:59:50.261Z,5.07
2022-08-01T11:02:16.769Z,6.78
2022-08-01T11:04:57.960Z,5.40
2022-08-01T11:07:36.416Z,3.80
2022-08-01T11:10:23.802Z,7.35
2022-08-01T11:12:51.864Z,6.13
2022-08-01T11:15:31.295Z,7.82
2022-08-01T11:18:00.677Z,5.50
2022-08-01T11:20:34.594Z,6.03
2022-08-01T11:23:10.794Z,4.55
2022-08-01T11:26:06.061Z,4.75
2022-08-01T11:28:32.083Z,4.65
2022-08-01T11:31:15.537Z,5.78
2022-08-01T11:33:47.071Z,3.63
2022-08-01T11:36:15.422Z,6.10
2022-08-01T11:38:46.030Z,5.82
2022-08-01T11:41:37.341Z,5.10
2022-08-01T11:44:15.116Z,4.45
2022-08-01T11:46:52.714Z,4.80
2022-08-01T11:49:40.433Z,3.95
2022-08-01T11:52:11.930Z,5.68
2022-08-01T11:54:44.067Z,5.28
2022-08-01T11:57:12.847Z,5.07
2022-08-01T11:59:56.227Z,5.38
2022-08-01T12:02:34.961Z,8.18
2022-08-01T12:05:03.767Z,5.65
2022-08-01T12:07:33.675Z,6.90
2022-08-01T12:10:01.703Z,7.85
2022-08-01T12:12:30.397Z,7.18
2022-08-01T12:15:05.191Z,8.18
2022-08-01T12:17:37.911Z,7.47
2022-08-01T12:20:06.573Z,10.60
2022-08-01T12:22:34.062Z,21.00
2022-08-01T12:25:13.191Z,7.90
2022-08-01T12:27:41.740Z,7.38
2022-08-01T12:30:12.371Z,6.90
2022-08-01T12:32:41.973Z,6.47
2022-08-01T12:35:18.403Z,10.27
2022-08-01T12:37:48.273Z,8.85
2022-08-01T12:40:16.751Z,7.95
2022-08-01T12:42:45.026Z,7.32
2022-08-01T12:45:16.262Z,12.82
2022-08-01T12:47:44.229Z,8.38
2022-08-01T12:50:19.186Z,9.70
2022-08-01T12:52:47.867Z,8.48
2022-08-01T12:55:20.648Z,7.22
2022-08-01T12:57:53.856Z,8.73
2022-08-01T13:03:03.522Z,9.90
2022-08-01T13:05:43.144Z,9.85
2022-08-01T13:08:14.683Z,6.75
2022-08-01T13:10:42.568Z,7.45
2022-08-01T13:13:10.333Z,5.70
2022-08-01T13:16:04.826Z,6.25
2022-08-01T13:18:33.998Z,9.27
2022-08-01T13:21:15.400Z,6.00
2022-08-01T13:24:01.693Z,4.60
2022-08-01T13:26:43.292Z,5.50
2022-08-01T13:29:11.263Z,4.75
2022-08-01T13:31:39.958Z,2.58
2022-08-01T13:34:07.404Z,6.28
2022-08-01T13:36:35.071Z,4.05
2022-08-01T13:39:21.205Z,4.45
2022-08-01T13:41:48.611Z,4.22
2022-08-01T13:44:16.478Z,2.35
2022-08-01T13:46:49.316Z,3.03
2022-08-01T13:49:17.731Z,5.88
2022-08-01T13:51:47.545Z,4.13
2022-08-01T13:54:15.003Z,4.68
2022-08-01T13:56:43.295Z,3.00
2022-08-01T13:59:11.639Z,8.02
2022-08-01T14:01:38.965Z,4.70
2022-08-01T14:04:06.503Z,3.58
2022-08-01T14:06:36.880Z,13.02
2022-08-01T14:09:17.771Z,7.28
2022-08-01T14:11:46.164Z,5.05
2022-08-01T14:14:14.031Z,6.88
2022-08-01T14:16:41.489Z,6.63
2022-08-01T14:19:12.323Z,6.25
2022-08-01T14:21:39.662Z,8.20
2022-08-01T14:24:07.701Z,4.30
2022-08-01T14:26:36.266Z,5.13
2022-08-01T14:29:04.318Z,6.85
2022-08-01T14:31:34.340Z,7.45
2022-08-01T14:34:01.766Z,6.95
2022-08-01T14:36:31.536Z,3.88
2022-08-01T14:39:01.033Z,6.28
2022-08-01T14:41:30.676Z,9.57
2022-08-01T14:43:58.865Z,11.70
2022-08-01T14:46:26.133Z,5.78
2022-08-01T14:48:53.464Z,5.07
2022-08-01T14:51:20.747Z,4.50
2022-08-01T14:53:50.775Z,8.82
2022-08-01T14:56:20.774Z,4.15
2022-08-01T14:58:48.611Z,3.67
2022-08-01T15:01:16.304Z,7.28
2022-08-01T15:03:43.764Z,7.57
2022-08-01T15:06:12.634Z,5.95
2022-08-01T15:08:40.331Z,4.70
2022-08-01T15:11:08.075Z,6.38
2022-08-01T15:13:38.136Z,5.95
2022-08-01T15:16:09.168Z,5.78
2022-08-01T15:18:39.255Z,3.58
2022-08-01T15:21:07.002Z,7.22
2022-08-01T15:23:36.768Z,4.13
2022-08-01T15:26:05.607Z,6.22
2022-08-01T15:28:33.388Z,5.95
2022-08-01T15:31:02.057Z,7.53
2022-08-01T15:33:29.699Z,7.68
2022-08-01T15:35:56.962Z,6.07
2022-08-01T15:38:24.872Z,4.68
2022-08-01T15:40:53.743Z,2.28
2022-08-01T15:43:22.345Z,3.67
2022-08-01T15:45:49.831Z,5.00
2022-08-01T15:48:18.211Z,4.25
2022-08-01T15:50:45.615Z,4.68
2022-08-01T15:53:13.115Z,7.03
2022-08-01T15:55:40.644Z,7.43
2022-08-01T15:58:11.615Z,6.20
2022-08-01T16:00:40.007Z,2.92
2022-08-01T16:03:10.686Z,5.60
2022-08-01T16:05:43.505Z,6.45
2022-08-01T16:08:14.823Z,6.18
2022-08-01T16:10:42.700Z,2.72
2022-08-01T16:13:09.956Z,7.88
2022-08-01T16:15:38.169Z,5.38
2022-08-01T16:18:07.549Z,4.03
2022-08-01T16:20:34.711Z,3.25
2022-08-01T16:23:02.340Z,3.53
2022-08-01T16:25:29.561Z,3.35
2022-08-01T16:27:56.774Z,5.40
2022-08-01T16:30:24.062Z,7.65
2022-08-01T16:32:53.692Z,4.13
2022-08-01T16:35:35.202Z,5.40
2022-08-01T16:38:05.135Z,5.00
2022-08-01T16:40:46.513Z,8.82
2022-08-01T16:43:19.142Z,4.85
2022-08-01T16:45:46.652Z,4.28
2022-08-01T16:48:16.111Z,5.55
2022-08-01T16:50:44.867Z,5.15
2022-08-01T16:53:12.245Z,5.65
2022-08-01T16:55:50.330Z,3.20
2022-08-01T16:58:19.786Z,4.75
2022-08-01T17:00:56.529Z,3.30
2022-08-01T17:03:46.560Z,5.53
2022-08-01T17:06:11.628Z,3.45
2022-08-01T17:08:46.469Z,6.25
2022-08-01T17:11:14.426Z,6.78
2022-08-01T17:13:42.338Z,4.65
2022-08-01T17:16:12.316Z,3.70
2022-08-01T17:18:39.789Z,5.18
2022-08-01T17:21:07.051Z,5.28
2022-08-01T17:23:35.139Z,5.75
2022-08-01T17:26:04.689Z,7.95
2022-08-01T17:28:31.966Z,6.70
2022-08-01T17:30:59.326Z,3.67
2022-08-01T17:33:46.013Z,6.18
2022-08-01T17:36:17.798Z,5.38
2022-08-01T17:38:45.252Z,5.20
2022-08-01T17:41:12.497Z,6.60
2022-08-01T17:43:39.854Z,4.78
2022-08-01T17:46:08.941Z,2.50
2022-08-01T17:48:36.466Z,2.85
2022-08-01T17:51:03.778Z,4.45
2022-08-01T17:53:31.210Z,2.95
2022-08-01T17:56:00.748Z,3.95
2022-08-01T17:58:36.777Z,4.13
2022-08-01T18:01:17.061Z,3.70
2022-08-01T18:03:44.890Z,3.72
2022-08-01T18:06:17.617Z,3.58
2022-08-01T18:08:47.150Z,7.18
2022-08-01T18:11:16.490Z,3.38
2022-08-01T18:13:43.946Z,5.93
2022-08-01T18:16:13.086Z,2.97
2022-08-01T18:18:41.240Z,5.28
2022-08-01T18:21:09.081Z,3.93
2022-08-01T18:23:36.962Z,2.45
2022-08-01T18:26:07.548Z,3.97
2022-08-01T18:28:46.293Z,5.15
2022-08-01T18:31:17.025Z,3.80
2022-08-01T18:33:44.607Z,4.80
2022-08-01T18:36:31.819Z,3.05
2022-08-01T18:39:01.785Z,4.00
2022-08-01T18:41:31.038Z,5.13
2022-08-01T18:44:03.879Z,4.85
2022-08-01T18:46:34.139Z,4.22
2022-08-01T18:49:01.453Z,2.87
2022-08-01T18:51:28.973Z,6.05
2022-08-01T18:53:59.035Z,5.47
2022-08-01T18:56:27.762Z,6.37
2022-08-01T18:58:55.634Z,4.83
2022-08-01T19:01:23.238Z,4.13
2022-08-01T19:03:50.494Z,4.53
2022-08-01T19:06:17.928Z,9.83
2022-08-01T19:08:46.051Z,4.50
2022-08-01T19:11:13.634Z,6.83
2022-08-01T19:13:41.088Z,5.10
2022-08-01T19:16:08.323Z,5.53
2022-08-01T19:18:35.560Z,6.50
2022-08-01T19:21:04.509Z,3.33
2022-08-01T19:23:57.703Z,6.17
2022-08-01T19:26:26.262Z,5.80
2022-08-01T19:29:02.620Z,5.90
2022-08-01T19:31:30.992Z,8.53
2022-08-01T19:33:59.045Z,7.73
2022-08-01T19:36:28.464Z,6.27
2022-08-01T19:38:57.474Z,21.33
2022-08-01T19:41:24.806Z,6.73
2022-08-01T19:43:52.387Z,6.13
2022-08-01T19:46:20.139Z,6.23
2022-08-01T19:48:54.069Z,4.77
2022-08-01T19:51:22.815Z,5.27
2022-08-01T19:54:04.130Z,7.03
2022-08-01T19:56:37.304Z,4.90
2022-08-01T19:59:09.326Z,7.73
2022-08-01T20:01:38.248Z,13.23
2022-08-01T20:04:06.244Z,5.67
2022-08-01T20:06:35.342Z,7.23
2022-08-01T20:09:03.216Z,7.87
2022-08-01T20:11:30.998Z,7.43
2022-08-01T20:14:00.670Z,4.97
2022-08-01T20:16:30.878Z,5.00
2022-08-01T20:19:05.501Z,6.13
2022-08-01T20:21:34.000Z,9.47
2022-08-01T20:24:03.299Z,5.30
2022-08-01T20:26:31.693Z,6.50
2022-08-01T20:28:59.018Z,3.20
2022-08-01T20:31:42.797Z,2.77
2022-08-01T20:34:15.628Z,9.57
2022-08-01T20:36:54.777Z,10.23
2022-08-01T20:39:26.608Z,6.67
2022-08-01T20:41:59.508Z,5.07
2022-08-01T20:44:31.492Z,5.93
2022-08-01T20:47:01.175Z,6.37
2022-08-01T20:49:29.129Z,7.33
2022-08-01T20:51:57.029Z,3.93
2022-08-01T20:54:24.435Z,5.83
2022-08-01T20:56:55.911Z,8.87
2022-08-01T20:59:40.037Z,7.57
2022-08-01T21:02:23.107Z,7.23
2022-08-01T21:04:56.210Z,5.37
2022-08-01T21:07:27.491Z,4.17
2022-08-01T21:10:07.323Z,4.80
2022-08-01T21:12:41.936Z,5.10
2022-08-01T21:15:09.986Z,10.87
2022-08-01T21:17:37.970Z,8.47
2022-08-01T21:20:09.102Z,4.90
2022-08-01T21:22:59.915Z,6.80
2022-08-01T21:25:28.504Z,5.20
2022-08-01T21:27:56.153Z,5.47
2022-08-01T21:30:25.054Z,9.87
2022-08-01T21:32:53.128Z,5.00
2022-08-01T21:35:24.787Z,6.23
2022-08-01T21:37:53.803Z,6.10
2022-08-01T21:40:22.341Z,6.13
2022-08-01T21:42:50.940Z,10.97
2022-08-01T21:45:21.924Z,8.17
2022-08-01T21:47:50.059Z,3.77
2022-08-01T21:50:17.832Z,6.10
2022-08-01T21:52:46.917Z,9.93
2022-08-01T21:55:35.652Z,5.17
2022-08-01T21:58:09.284Z,5.60
2022-08-01T22:00:37.967Z,8.43
2022-08-01T22:03:12.601Z,5.13
2022-08-01T22:05:50.097Z,7.67
2022-08-01T22:08:22.252Z,4.80
2022-08-01T22:10:55.636Z,6.00
2022-08-01T22:13:22.899Z,4.80
2022-08-01T22:15:50.551Z,5.33
2022-08-01T22:18:17.869Z,6.07
2022-08-01T22:20:48.876Z,4.40
2022-08-01T22:23:17.251Z,8.63
2022-08-01T22:25:46.423Z,4.80
2022-08-01T22:28:17.177Z,6.03
2022-08-01T22:30:44.415Z,6.37
2022-08-01T22:33:16.918Z,6.80
2022-08-01T22:35:49.229Z,8.33
2022-08-01T22:38:20.545Z,7.67
2022-08-01T22:40:52.747Z,5.97
2022-08-01T22:43:29.210Z,8.30
2022-08-01T22:46:05.608Z,6.07
2022-08-01T22:48:39.235Z,8.97
2022-08-01T22:51:11.350Z,6.67
2022-08-01T22:54:02.144Z,10.20
2022-08-01T22:56:31.296Z,8.47
2022-08-01T22:59:00.307Z,8.97
2022-08-01T23:01:30.203Z,5.33
2022-08-01T23:04:00.510Z,9.73
2022-08-01T23:06:48.079Z,4.27
2022-08-01T23:09:18.260Z,7.73
2022-08-01T23:11:50.344Z,7.40
2022-08-01T23:14:20.985Z,5.57
2022-08-01T23:16:49.136Z,8.77
2022-08-01T23:19:17.126Z,7.13
2022-08-01T23:21:48.160Z,6.30
2022-08-01T23:24:15.942Z,5.27
2022-08-01T23:26:43.518Z,7.13
2022-08-01T23:29:13.365Z,4.40
2022-08-01T23:32:00.509Z,10.43
2022-08-01T23:34:27.821Z,6.37
2022-08-01T23:36:55.062Z,5.43
2022-08-01T23:39:23.684Z,7.87
2022-08-01T23:41:57.802Z,4.43
2022-08-01T23:44:26.505Z,5.27
2022-08-01T23:46:53.745Z,4.63
2022-08-01T23:49:20.980Z,7.57
2022-08-01T23:51:49.713Z,4.93
2022-08-01T23:54:18.401Z,6.20
2022-08-01T23:56:45.858Z,7.23
2022-08-01T23:59:13.504Z,7.43
